sensor_id;sensor_type;location;lat;lon;timestamp;temperature;humidity
17968;DHT22;9109;48.050;11.696;2023-02-03T04:46:50;4.30;99.90
17968;DHT22;9109;48.050;11.696;2023-02-03T04:50:24;4.30;99.90
17968;DHT22;9109;48.050;11.696;2023-02-03T04:53:26;4.30;99.90
17968;DHT22;9109;48.050;11.696;2023-02-03T04:56:28;4.30;99.90
17968;DHT22;9109;48.050;11.696;2023-02-03T04:59:30;4.40;99.90
17968;DHT22;9109;48.050;11.696;2023-02-03T05:02:33;4.40;99.90
17968;DHT22;9109;48.050;11.696;2023-02-03T05:05:36;4.40;99.90
17968;DHT22;9109;48.050;11.696;2023-02-03T05:08:38;4.40;99.90
17968;DHT22;9109;48.050;11.696;2023-02-03T05:11:39;4.40;99.90
17968;DHT22;9109;48.050;11.696;2023-02-03T05:14:41;4.40;99.90
17968;DHT22;9109;48.050;11.696;2023-02-03T05:17:56;4.40;99.90
17968;DHT22;9109;48.050;11.696;2023-02-03T05:20:57;4.40;99.90
17968;DHT22;9109;48.050;11.696;2023-02-03T05:23:59;4.40;99.90
17968;DHT22;9109;48.050;11.696;2023-02-03T05:27:03;4.30;99.90
17968;DHT22;9109;48.050;11.696;2023-02-03T05:30:06;4.40;99.90
17968;DHT22;9109;48.050;11.696;2023-02-03T05:33:20;4.40;99.90
17968;DHT22;9109;48.050;11.696;2023-02-03T05:36:25;4.40;99.90
17968;DHT22;9109;48.050;11.696;2023-02-03T05:39:32;4.40;99.90
17968;DHT22;9109;48.050;11.696;2023-02-03T05:42:34;4.40;99.90
17968;DHT22;9109;48.050;11.696;2023-02-03T05:45:35;4.40;99.90
17968;DHT22;9109;48.050;11.696;2023-02-03T05:48:38;4.30;99.90
17968;DHT22;9109;48.050;11.696;2023-02-03T05:51:40;4.30;99.90
17968;DHT22;9109;48.050;11.696;2023-02-03T05:54:42;4.30;99.90
17968;DHT22;9109;48.050;11.696;2023-02-03T05:57:44;4.30;99.90
17968;DHT22;9109;48.050;11.696;2023-02-03T06:00:46;4.30;99.90
17968;DHT22;9109;48.050;11.696;2023-02-03T06:03:50;4.30;99.90
17968;DHT22;9109;48.050;11.696;2023-02-03T06:06:52;4.20;99.90
17968;DHT22;9109;48.050;11.696;2023-02-03T06:09:54;4.30;99.90
17968;DHT22;9109;48.050;11.696;2023-02-03T06:12:56;4.30;99.90
17968;DHT22;9109;48.050;11.696;2023-02-03T06:15:58;4.30;99.90
17968;DHT22;9109;48.050;11.696;2023-02-03T06:19:01;4.30;99.90
17968;DHT22;9109;48.050;11.696;2023-02-03T06:22:03;4.30;99.90
17968;DHT22;9109;48.050;11.696;2023-02-03T06:25:06;4.20;99.90
17968;DHT22;9109;48.050;11.696;2023-02-03T06:28:08;4.20;99.90
17968;DHT22;9109;48.050;11.696;2023-02-03T06:31:10;4.30;99.90
17968;DHT22;9109;48.050;11.696;2023-02-03T06:34:13;4.30;99.90
17968;DHT22;9109;48.050;11.696;2023-02-03T06:37:15;4.30;99.90
17968;DHT22;9109;48.050;11.696;2023-02-03T06:40:20;4.30;99.90
17968;DHT22;9109;48.050;11.696;2023-02-03T06:43:22;4.40;99.90
17968;DHT22;9109;48.050;11.696;2023-02-03T06:46:24;4.30;99.90
17968;DHT22;9109;48.050;11.696;2023-02-03T06:49:30;4.40;99.90
17968;DHT22;9109;48.050;11.696;2023-02-03T06:52:32;4.30;99.90
17968;DHT22;9109;48.050;11.696;2023-02-03T06:55:34;4.30;99.90
17968;DHT22;9109;48.050;11.696;2023-02-03T06:58:36;4.30;99.90
17968;DHT22;9109;48.050;11.696;2023-02-03T07:01:38;4.30;99.90
17968;DHT22;9109;48.050;11.696;2023-02-03T07:04:42;4.40;99.90
17968;DHT22;9109;48.050;11.696;2023-02-03T07:07:44;4.40;99.90
17968;DHT22;9109;48.050;11.696;2023-02-03T07:10:46;4.40;99.90
17968;DHT22;9109;48.050;11.696;2023-02-03T07:13:48;4.40;99.90
17968;DHT22;9109;48.050;11.696;2023-02-03T07:16:50;4.40;99.90
17968;DHT22;9109;48.050;11.696;2023-02-03T07:19:55;4.40;99.90
17968;DHT22;9109;48.050;11.696;2023-02-03T07:22:57;4.40;99.90
17968;DHT22;9109;48.050;11.696;2023-02-03T07:26:00;4.40;99.90
17968;DHT22;9109;48.050;11.696;2023-02-03T07:29:02;4.40;99.90
17968;DHT22;9109;48.050;11.696;2023-02-03T07:32:04;4.40;99.90
17968;DHT22;9109;48.050;11.696;2023-02-03T07:35:08;4.40;99.90
17968;DHT22;9109;48.050;11.696;2023-02-03T07:38:10;4.50;99.90
17968;DHT22;9109;48.050;11.696;2023-02-03T07:41:12;4.50;99.90
17968;DHT22;9109;48.050;11.696;2023-02-03T07:44:14;4.60;99.90
17968;DHT22;9109;48.050;11.696;2023-02-03T07:47:16;4.60;99.90
17968;DHT22;9109;48.050;11.696;2023-02-03T07:50:19;4.60;99.90
17968;DHT22;9109;48.050;11.696;2023-02-03T07:53:21;4.70;99.90
17968;DHT22;9109;48.050;11.696;2023-02-03T07:56:23;4.60;99.90
17968;DHT22;9109;48.050;11.696;2023-02-03T07:59:25;4.60;99.90
17968;DHT22;9109;48.050;11.696;2023-02-03T08:02:27;4.50;99.90
17968;DHT22;9109;48.050;11.696;2023-02-03T08:05:30;4.50;99.90
17968;DHT22;9109;48.050;11.696;2023-02-03T08:08:32;4.60;99.90
17968;DHT22;9109;48.050;11.696;2023-02-03T08:11:34;4.50;99.90
17968;DHT22;9109;48.050;11.696;2023-02-03T08:14:35;4.60;99.90
17968;DHT22;9109;48.050;11.696;2023-02-03T08:17:37;4.70;99.90
17968;DHT22;9109;48.050;11.696;2023-02-03T08:20:42;4.70;99.90
17968;DHT22;9109;48.050;11.696;2023-02-03T08:23:44;4.70;99.90
17968;DHT22;9109;48.050;11.696;2023-02-03T08:26:46;4.70;99.90
17968;DHT22;9109;48.050;11.696;2023-02-03T08:29:48;4.70;99.90
17968;DHT22;9109;48.050;11.696;2023-02-03T08:32:50;4.80;99.90
17968;DHT22;9109;48.050;11.696;2023-02-03T08:35:53;4.80;99.90
17968;DHT22;9109;48.050;11.696;2023-02-03T08:38:56;4.80;99.90
17968;DHT22;9109;48.050;11.696;2023-02-03T08:41:58;4.90;99.90
17968;DHT22;9109;48.050;11.696;2023-02-03T08:45:00;5.00;99.90
17968;DHT22;9109;48.050;11.696;2023-02-03T08:48:01;4.90;99.90
17968;DHT22;9109;48.050;11.696;2023-02-03T08:51:09;5.00;99.90
17968;DHT22;9109;48.050;11.696;2023-02-03T08:54:12;4.90;99.90
17968;DHT22;9109;48.050;11.696;2023-02-03T08:57:15;5.00;99.90
17968;DHT22;9109;48.050;11.696;2023-02-03T09:00:17;5.10;99.90
17968;DHT22;9109;48.050;11.696;2023-02-03T09:03:20;5.10;99.90
17968;DHT22;9109;48.050;11.696;2023-02-03T09:06:23;5.10;99.90
17968;DHT22;9109;48.050;11.696;2023-02-03T09:09:25;5.20;99.90
17968;DHT22;9109;48.050;11.696;2023-02-03T09:12:28;5.20;99.90
17968;DHT22;9109;48.050;11.696;2023-02-03T09:15:30;5.30;99.90
17968;DHT22;9109;48.050;11.696;2023-02-03T09:18:32;5.20;99.90
17968;DHT22;9109;48.050;11.696;2023-02-03T09:21:35;5.30;99.90
17968;DHT22;9109;48.050;11.696;2023-02-03T09:24:37;5.30;99.90
17968;DHT22;9109;48.050;11.696;2023-02-03T09:27:38;5.30;99.90
17968;DHT22;9109;48.050;11.696;2023-02-03T09:30:40;5.30;99.90
17968;DHT22;9109;48.050;11.696;2023-02-03T09:33:43;5.30;99.90
17968;DHT22;9109;48.050;11.696;2023-02-03T09:36:46;5.30;99.90
17968;DHT22;9109;48.050;11.696;2023-02-03T09:39:48;5.30;99.90
17968;DHT22;9109;48.050;11.696;2023-02-03T09:42:58;5.30;99.90
17968;DHT22;9109;48.050;11.696;2023-02-03T09:46:06;5.30;99.90
17968;DHT22;9109;48.050;11.696;2023-02-03T09:49:12;5.30;99.90
17968;DHT22;9109;48.050;11.696;2023-02-03T09:52:18;5.40;99.90
17968;DHT22;9109;48.050;11.696;2023-02-03T09:55:27;5.40;99.90
17968;DHT22;9109;48.050;11.696;2023-02-03T09:58:32;5.50;99.90
17968;DHT22;9109;48.050;11.696;2023-02-03T10:01:41;5.50;99.90
17968;DHT22;9109;48.050;11.696;2023-02-03T10:04:51;5.60;99.90
17968;DHT22;9109;48.050;11.696;2023-02-03T10:08:04;5.70;99.90
17968;DHT22;9109;48.050;11.696;2023-02-03T10:11:13;5.70;99.90
17968;DHT22;9109;48.050;11.696;2023-02-03T10:14:28;5.80;99.90
17968;DHT22;9109;48.050;11.696;2023-02-03T10:17:36;5.80;99.90
17968;DHT22;9109;48.050;11.696;2023-02-03T10:20:41;5.90;99.90
17968;DHT22;9109;48.050;11.696;2023-02-03T10:23:45;5.80;99.90
17968;DHT22;9109;48.050;11.696;2023-02-03T10:26:48;5.80;99.90
17968;DHT22;9109;48.050;11.696;2023-02-03T10:29:56;5.80;99.90
17968;DHT22;9109;48.050;11.696;2023-02-03T10:33:08;5.80;99.90
17968;DHT22;9109;48.050;11.696;2023-02-03T10:36:17;5.80;99.90
17968;DHT22;9109;48.050;11.696;2023-02-03T10:39:29;5.80;99.90
17968;DHT22;9109;48.050;11.696;2023-02-03T10:42:33;5.80;99.90
17968;DHT22;9109;48.050;11.696;2023-02-03T10:45:49;5.80;99.90
17968;DHT22;9109;48.050;11.696;2023-02-03T10:48:51;5.90;99.90
17968;DHT22;9109;48.050;11.696;2023-02-03T10:51:55;5.90;99.90
17968;DHT22;9109;48.050;11.696;2023-02-03T10:55:04;6.00;99.90
17968;DHT22;9109;48.050;11.696;2023-02-03T10:58:13;6.00;99.90
17968;DHT22;9109;48.050;11.696;2023-02-03T11:01:18;6.00;99.90
17968;DHT22;9109;48.050;11.696;2023-02-03T11:04:24;5.90;99.90
17968;DHT22;9109;48.050;11.696;2023-02-03T11:07:29;6.00;99.90
17968;DHT22;9109;48.050;11.696;2023-02-03T11:10:34;6.10;99.90
17968;DHT22;9109;48.050;11.696;2023-02-03T11:13:37;6.00;99.90
17968;DHT22;9109;48.050;11.696;2023-02-03T11:16:39;6.00;99.90
17968;DHT22;9109;48.050;11.696;2023-02-03T11:19:43;6.10;99.90
17968;DHT22;9109;48.050;11.696;2023-02-03T11:22:47;6.10;99.90
17968;DHT22;9109;48.050;11.696;2023-02-03T11:25:51;6.20;99.90
17968;DHT22;9109;48.050;11.696;2023-02-03T11:28:56;6.30;99.90
17968;DHT22;9109;48.050;11.696;2023-02-03T11:32:03;6.30;99.90
17968;DHT22;9109;48.050;11.696;2023-02-03T11:35:14;6.20;99.90
17968;DHT22;9109;48.050;11.696;2023-02-03T11:38:28;6.30;99.90
17968;DHT22;9109;48.050;11.696;2023-02-03T11:41:36;6.30;99.90
17968;DHT22;9109;48.050;11.696;2023-02-03T11:44:38;6.30;99.90
17968;DHT22;9109;48.050;11.696;2023-02-03T11:47:44;6.40;99.90
17968;DHT22;9109;48.050;11.696;2023-02-03T11:50:49;6.30;99.90
17968;DHT22;9109;48.050;11.696;2023-02-03T11:54:13;6.40;99.90
17968;DHT22;9109;48.050;11.696;2023-02-03T11:57:26;6.50;99.90
17968;DHT22;9109;48.050;11.696;2023-02-03T12:00:35;6.50;99.90
17968;DHT22;9109;48.050;11.696;2023-02-03T12:07:44;6.60;99.90
17968;DHT22;9109;48.050;11.696;2023-02-03T12:10:59;6.60;99.90
17968;DHT22;9109;48.050;11.696;2023-02-03T12:14:23;6.60;99.90
17968;DHT22;9109;48.050;11.696;2023-02-03T12:17:44;6.60;99.90
17968;DHT22;9109;48.050;11.696;2023-02-03T12:20:59;6.50;99.90
17968;DHT22;9109;48.050;11.696;2023-02-03T12:24:10;6.60;99.90
17968;DHT22;9109;48.050;11.696;2023-02-03T12:27:24;6.60;99.90
17968;DHT22;9109;48.050;11.696;2023-02-03T12:30:37;6.50;99.90
17968;DHT22;9109;48.050;11.696;2023-02-03T12:33:42;6.60;99.90
17968;DHT22;9109;48.050;11.696;2023-02-03T12:36:49;6.60;99.90
17968;DHT22;9109;48.050;11.696;2023-02-03T12:39:56;6.70;99.90
17968;DHT22;9109;48.050;11.696;2023-02-03T12:43:19;6.70;99.90
17968;DHT22;9109;48.050;11.696;2023-02-03T12:46:26;6.70;99.90
17968;DHT22;9109;48.050;11.696;2023-02-03T12:49:35;6.60;99.90
17968;DHT22;9109;48.050;11.696;2023-02-03T12:52:42;6.70;99.90
17968;DHT22;9109;48.050;11.696;2023-02-03T12:55:49;6.70;99.90
17968;DHT22;9109;48.050;11.696;2023-02-03T12:58:57;6.80;99.90
17968;DHT22;9109;48.050;11.696;2023-02-03T13:02:13;6.70;99.90
17968;DHT22;9109;48.050;11.696;2023-02-03T13:05:33;6.60;99.90
17968;DHT22;9109;48.050;11.696;2023-02-03T13:08:45;6.60;99.90
17968;DHT22;9109;48.050;11.696;2023-02-03T13:12:23;6.70;99.90
17968;DHT22;9109;48.050;11.696;2023-02-03T13:15:30;6.60;99.90
17968;DHT22;9109;48.050;11.696;2023-02-03T13:18:36;6.70;99.90
17968;DHT22;9109;48.050;11.696;2023-02-03T13:21:39;6.70;99.90
17968;DHT22;9109;48.050;11.696;2023-02-03T13:24:44;6.70;99.90
17968;DHT22;9109;48.050;11.696;2023-02-03T13:27:50;6.70;99.90
17968;DHT22;9109;48.050;11.696;2023-02-03T13:31:12;6.70;99.90
17968;DHT22;9109;48.050;11.696;2023-02-03T13:41:17;6.70;99.90
17968;DHT22;9109;48.050;11.696;2023-02-03T13:44:25;6.70;99.90
17968;DHT22;9109;48.050;11.696;2023-02-03T13:47:30;6.60;99.90
17968;DHT22;9109;48.050;11.696;2023-02-03T13:50:35;6.60;99.80
17968;DHT22;9109;48.050;11.696;2023-02-03T13:53:39;6.60;99.90
17968;DHT22;9109;48.050;11.696;2023-02-03T13:56:52;6.60;99.90
17968;DHT22;9109;48.050;11.696;2023-02-03T13:59:55;6.60;99.90
17968;DHT22;9109;48.050;11.696;2023-02-03T14:02:57;6.50;99.90
17968;DHT22;9109;48.050;11.696;2023-02-03T14:06:00;6.50;99.70
17968;DHT22;9109;48.050;11.696;2023-02-03T14:09:18;6.60;99.90
17968;DHT22;9109;48.050;11.696;2023-02-03T14:12:34;6.50;99.90
17968;DHT22;9109;48.050;11.696;2023-02-03T14:15:36;6.40;99.90
17968;DHT22;9109;48.050;11.696;2023-02-03T14:18:43;6.40;99.90
17968;DHT22;9109;48.050;11.696;2023-02-03T14:21:50;6.40;99.90
17968;DHT22;9109;48.050;11.696;2023-02-03T14:24:54;6.40;99.90
17968;DHT22;9109;48.050;11.696;2023-02-03T14:27:58;6.50;99.90
17968;DHT22;9109;48.050;11.696;2023-02-03T14:31:09;6.40;99.90
17968;DHT22;9109;48.050;11.696;2023-02-03T14:34:15;6.40;99.90
17968;DHT22;9109;48.050;11.696;2023-02-03T14:37:21;6.30;99.90
17968;DHT22;9109;48.050;11.696;2023-02-03T14:40:33;6.30;99.90
17968;DHT22;9109;48.050;11.696;2023-02-03T14:43:43;6.40;99.90
17968;DHT22;9109;48.050;11.696;2023-02-03T14:46:59;6.40;99.90
17968;DHT22;9109;48.050;11.696;2023-02-03T14:50:13;6.50;99.90
17968;DHT22;9109;48.050;11.696;2023-02-03T14:53:39;6.40;99.90
17968;DHT22;9109;48.050;11.696;2023-02-03T14:56:46;6.30;99.90
17968;DHT22;9109;48.050;11.696;2023-02-03T15:00:26;6.20;99.90
17968;DHT22;9109;48.050;11.696;2023-02-03T15:03:28;6.20;99.90
17968;DHT22;9109;48.050;11.696;2023-02-03T15:06:41;6.20;99.90
17968;DHT22;9109;48.050;11.696;2023-02-03T15:09:45;6.20;99.90
17968;DHT22;9109;48.050;11.696;2023-02-03T15:12:49;6.10;99.90
17968;DHT22;9109;48.050;11.696;2023-02-03T15:15:52;6.20;99.90
17968;DHT22;9109;48.050;11.696;2023-02-03T15:18:57;6.20;99.90
17968;DHT22;9109;48.050;11.696;2023-02-03T15:22:00;6.20;99.90
17968;DHT22;9109;48.050;11.696;2023-02-03T15:25:15;6.20;99.90
17968;DHT22;9109;48.050;11.696;2023-02-03T15:28:19;6.20;99.90
17968;DHT22;9109;48.050;11.696;2023-02-03T15:31:28;6.20;99.90
17968;DHT22;9109;48.050;11.696;2023-02-03T15:34:37;6.20;99.90
17968;DHT22;9109;48.050;11.696;2023-02-03T15:38:09;6.20;99.90
17968;DHT22;9109;48.050;11.696;2023-02-03T15:41:36;6.30;99.90
17968;DHT22;9109;48.050;11.696;2023-02-03T15:44:53;6.30;99.90
17968;DHT22;9109;48.050;11.696;2023-02-03T15:48:56;6.20;99.90
17968;DHT22;9109;48.050;11.696;2023-02-03T15:52:16;6.20;99.90
17968;DHT22;9109;48.050;11.696;2023-02-03T15:55:34;6.20;99.90
17968;DHT22;9109;48.050;11.696;2023-02-03T15:58:47;6.30;99.90
17968;DHT22;9109;48.050;11.696;2023-02-03T16:02:13;6.20;99.90
17968;DHT22;9109;48.050;11.696;2023-02-03T16:05:41;6.30;99.90
17968;DHT22;9109;48.050;11.696;2023-02-03T16:08:50;6.30;99.90
17968;DHT22;9109;48.050;11.696;2023-02-03T16:15:25;6.20;99.90
17968;DHT22;9109;48.050;11.696;2023-02-03T16:18:52;6.20;99.90
17968;DHT22;9109;48.050;11.696;2023-02-03T16:22:03;6.20;99.90
17968;DHT22;9109;48.050;11.696;2023-02-03T16:25:17;6.10;99.90
17968;DHT22;9109;48.050;11.696;2023-02-03T16:28:23;6.10;99.90
17968;DHT22;9109;48.050;11.696;2023-02-03T16:31:51;6.10;99.90
17968;DHT22;9109;48.050;11.696;2023-02-03T16:35:27;6.10;99.90
17968;DHT22;9109;48.050;11.696;2023-02-03T16:38:48;6.10;99.90
17968;DHT22;9109;48.050;11.696;2023-02-03T16:42:14;6.10;99.90
17968;DHT22;9109;48.050;11.696;2023-02-03T16:45:45;6.10;99.90
17968;DHT22;9109;48.050;11.696;2023-02-03T16:49:21;6.10;99.90
17968;DHT22;9109;48.050;11.696;2023-02-03T16:52:45;6.20;99.90
17968;DHT22;9109;48.050;11.696;2023-02-03T16:56:20;6.20;99.90
17968;DHT22;9109;48.050;11.696;2023-02-03T16:59:40;6.20;99.90
17968;DHT22;9109;48.050;11.696;2023-02-03T17:03:02;6.20;99.90
17968;DHT22;9109;48.050;11.696;2023-02-03T17:06:13;6.20;99.90
17968;DHT22;9109;48.050;11.696;2023-02-03T17:09:55;6.10;99.90
17968;DHT22;9109;48.050;11.696;2023-02-03T17:12:58;6.10;99.90
17968;DHT22;9109;48.050;11.696;2023-02-03T17:16:48;6.10;99.90
17968;DHT22;9109;48.050;11.696;2023-02-03T17:20:10;6.10;99.90
17968;DHT22;9109;48.050;11.696;2023-02-03T17:23:31;6.10;99.90
17968;DHT22;9109;48.050;11.696;2023-02-03T17:26:35;6.20;99.90
17968;DHT22;9109;48.050;11.696;2023-02-03T17:29:38;6.20;99.90
17968;DHT22;9109;48.050;11.696;2023-02-03T17:32:44;6.10;99.90
17968;DHT22;9109;48.050;11.696;2023-02-03T17:39:49;6.00;99.90
17968;DHT22;9109;48.050;11.696;2023-02-03T17:47:10;6.00;99.90
17968;DHT22;9109;48.050;11.696;2023-02-03T17:51:03;6.00;99.90
17968;DHT22;9109;48.050;11.696;2023-02-03T17:54:15;6.00;99.90
17968;DHT22;9109;48.050;11.696;2023-02-03T17:57:59;6.00;99.90
17968;DHT22;9109;48.050;11.696;2023-02-03T18:05:35;6.00;99.90
17968;DHT22;9109;48.050;11.696;2023-02-03T18:17:17;5.90;99.90
17968;DHT22;9109;48.050;11.696;2023-02-03T18:21:36;5.80;99.90
17968;DHT22;9109;48.050;11.696;2023-02-03T18:29:00;5.80;99.90
17968;DHT22;9109;48.050;11.696;2023-02-03T18:44:21;5.70;99.90
17968;DHT22;9109;48.050;11.696;2023-02-03T18:51:30;5.70;99.90
17968;DHT22;9109;48.050;11.696;2023-02-03T18:58:41;5.70;99.90
17968;DHT22;9109;48.050;11.696;2023-02-03T19:01:44;5.70;99.90
17968;DHT22;9109;48.050;11.696;2023-02-03T19:04:47;5.70;99.90
17968;DHT22;9109;48.050;11.696;2023-02-03T19:07:49;5.70;99.90
17968;DHT22;9109;48.050;11.696;2023-02-03T19:10:52;5.60;99.90
17968;DHT22;9109;48.050;11.696;2023-02-03T19:13:54;5.60;99.90
17968;DHT22;9109;48.050;11.696;2023-02-03T19:16:57;5.60;99.90
17968;DHT22;9109;48.050;11.696;2023-02-03T19:19:59;5.60;99.90
17968;DHT22;9109;48.050;11.696;2023-02-03T19:23:02;5.60;99.90
17968;DHT22;9109;48.050;11.696;2023-02-03T19:26:08;5.50;99.90
17968;DHT22;9109;48.050;11.696;2023-02-03T19:29:10;5.50;99.90
17968;DHT22;9109;48.050;11.696;2023-02-03T19:32:13;5.50;99.90
17968;DHT22;9109;48.050;11.696;2023-02-03T19:35:15;5.50;99.90
17968;DHT22;9109;48.050;11.696;2023-02-03T19:38:18;5.50;99.90
17968;DHT22;9109;48.050;11.696;2023-02-03T19:41:19;5.50;99.90
17968;DHT22;9109;48.050;11.696;2023-02-03T19:44:21;5.50;99.90
17968;DHT22;9109;48.050;11.696;2023-02-03T19:47:24;5.50;99.90
17968;DHT22;9109;48.050;11.696;2023-02-03T19:50:26;5.50;99.90
17968;DHT22;9109;48.050;11.696;2023-02-03T19:53:28;5.40;99.90
17968;DHT22;9109;48.050;11.696;2023-02-03T19:56:30;5.30;99.90
17968;DHT22;9109;48.050;11.696;2023-02-03T19:59:32;5.30;99.90
17968;DHT22;9109;48.050;11.696;2023-02-03T20:02:36;5.30;99.90
17968;DHT22;9109;48.050;11.696;2023-02-03T20:05:38;5.30;99.90
17968;DHT22;9109;48.050;11.696;2023-02-03T20:08:40;5.30;99.90
17968;DHT22;9109;48.050;11.696;2023-02-03T20:11:42;5.30;99.90
17968;DHT22;9109;48.050;11.696;2023-02-03T20:14:43;5.30;99.90
17968;DHT22;9109;48.050;11.696;2023-02-03T20:17:47;5.30;99.90
17968;DHT22;9109;48.050;11.696;2023-02-03T20:20:49;5.30;99.90
17968;DHT22;9109;48.050;11.696;2023-02-03T20:23:51;5.30;99.90
17968;DHT22;9109;48.050;11.696;2023-02-03T20:26:53;5.30;99.90
17968;DHT22;9109;48.050;11.696;2023-02-03T20:29:55;5.30;99.90
17968;DHT22;9109;48.050;11.696;2023-02-03T20:32:59;5.30;99.90
17968;DHT22;9109;48.050;11.696;2023-02-03T20:36:01;5.30;99.90
17968;DHT22;9109;48.050;11.696;2023-02-03T20:39:03;5.30;99.90
17968;DHT22;9109;48.050;11.696;2023-02-03T20:42:10;5.30;99.90
17968;DHT22;9109;48.050;11.696;2023-02-03T20:45:14;5.30;99.90
17968;DHT22;9109;48.050;11.696;2023-02-03T20:48:20;5.30;99.90
17968;DHT22;9109;48.050;11.696;2023-02-03T20:51:23;5.30;99.90
17968;DHT22;9109;48.050;11.696;2023-02-03T20:54:26;5.30;99.90
17968;DHT22;9109;48.050;11.696;2023-02-03T20:57:28;5.30;99.90
17968;DHT22;9109;48.050;11.696;2023-02-03T21:00:30;5.30;99.90
17968;DHT22;9109;48.050;11.696;2023-02-03T21:03:33;5.30;99.90
17968;DHT22;9109;48.050;11.696;2023-02-03T21:06:52;5.30;99.90
17968;DHT22;9109;48.050;11.696;2023-02-03T21:09:56;5.30;99.90
17968;DHT22;9109;48.050;11.696;2023-02-03T21:12:58;5.30;99.90
17968;DHT22;9109;48.050;11.696;2023-02-03T21:16:00;5.30;99.90
17968;DHT22;9109;48.050;11.696;2023-02-03T21:19:07;5.30;99.90
17968;DHT22;9109;48.050;11.696;2023-02-03T21:22:15;5.30;99.90
17968;DHT22;9109;48.050;11.696;2023-02-03T21:25:26;5.30;99.90
17968;DHT22;9109;48.050;11.696;2023-02-03T21:28:31;5.30;99.90
17968;DHT22;9109;48.050;11.696;2023-02-03T21:31:35;5.30;99.90
17968;DHT22;9109;48.050;11.696;2023-02-03T21:34:41;5.30;99.90
17968;DHT22;9109;48.050;11.696;2023-02-03T21:37:43;5.30;99.90
17968;DHT22;9109;48.050;11.696;2023-02-03T21:40:45;5.30;99.90
17968;DHT22;9109;48.050;11.696;2023-02-03T21:43:50;5.30;99.90
17968;DHT22;9109;48.050;11.696;2023-02-03T21:46:52;5.30;99.90
17968;DHT22;9109;48.050;11.696;2023-02-03T21:49:56;5.30;99.90
17968;DHT22;9109;48.050;11.696;2023-02-03T21:56:20;5.30;99.90
17968;DHT22;9109;48.050;11.696;2023-02-03T21:59:24;5.20;99.90
17968;DHT22;9109;48.050;11.696;2023-02-03T22:02:53;5.20;99.90
17968;DHT22;9109;48.050;11.696;2023-02-03T22:10:38;5.20;99.90
17968;DHT22;9109;48.050;11.696;2023-02-03T22:18:09;5.20;99.90
17968;DHT22;9109;48.050;11.696;2023-02-03T22:21:54;5.20;99.90
17968;DHT22;9109;48.050;11.696;2023-02-03T22:25:20;5.20;99.90
17968;DHT22;9109;48.050;11.696;2023-02-03T22:59:56;5.30;99.90
17968;DHT22;9109;48.050;11.696;2023-02-03T23:03:10;5.30;99.90
17968;DHT22;9109;48.050;11.696;2023-02-03T23:06:31;5.20;99.90
17968;DHT22;9109;48.050;11.696;2023-02-03T23:09:49;5.10;99.90
17968;DHT22;9109;48.050;11.696;2023-02-03T23:13:20;5.10;99.90
17968;DHT22;9109;48.050;11.696;2023-02-03T23:16:25;5.10;99.90
17968;DHT22;9109;48.050;11.696;2023-02-03T23:43:05;5.10;99.90
17968;DHT22;9109;48.050;11.696;2023-02-03T23:49:16;5.00;99.90
17968;DHT22;9109;48.050;11.696;2023-02-03T23:51:22;5.00;99.90
17968;DHT22;9109;48.050;11.696;2023-02-03T23:54:28;5.00;99.90
17968;DHT22;9109;48.050;11.696;2023-02-03T23:57:59;5.00;99.90
